createdAt,value
2023-04-30T00:01:24.252Z,13.53
2023-04-30T00:03:50.893Z,13.18
2023-04-30T00:06:17.461Z,12.70
2023-04-30T00:08:44.024Z,12.49
2023-04-30T00:11:10.559Z,12.42
2023-04-30T00:13:37.649Z,12.27
2023-04-30T00:16:04.470Z,12.11
2023-04-30T00:18:31.002Z,12.09
2023-04-30T00:20:57.530Z,11.94
2023-04-30T00:23:24.096Z,11.88
2023-04-30T00:25:50.585Z,11.80
2023-04-30T00:28:17.098Z,11.74
2023-04-30T00:30:43.594Z,11.77
2023-04-30T00:33:10.128Z,11.77
2023-04-30T00:35:36.699Z,11.82
2023-04-30T00:38:03.214Z,11.88
2023-04-30T00:40:29.936Z,11.74
2023-04-30T00:42:56.440Z,11.70
2023-04-30T00:45:23.050Z,11.73
2023-04-30T00:47:49.930Z,11.53
2023-04-30T00:50:16.668Z,11.72
2023-04-30T00:52:43.718Z,11.74
2023-04-30T00:55:11.749Z,11.93
2023-04-30T00:57:39.325Z,11.88
2023-04-30T01:00:06.274Z,11.77
2023-04-30T01:02:33.130Z,11.76
2023-04-30T01:04:59.782Z,11.68
2023-04-30T01:07:26.359Z,11.43
2023-04-30T01:09:53.172Z,11.49
2023-04-30T01:12:29.018Z,11.58
2023-04-30T01:15:08.691Z,11.34
2023-04-30T01:17:43.615Z,11.36
2023-04-30T01:20:10.625Z,11.24
2023-04-30T01:22:47.170Z,11.25
2023-04-30T01:25:25.410Z,11.31
2023-04-30T01:28:00.694Z,11.21
2023-04-30T01:30:27.210Z,11.13
2023-04-30T01:32:53.958Z,11.17
2023-04-30T01:35:20.781Z,11.15
2023-04-30T01:38:05.890Z,11.21
2023-04-30T01:40:43.337Z,11.01
2023-04-30T01:43:25.077Z,11.04
2023-04-30T01:45:54.373Z,11.00
2023-04-30T01:48:36.110Z,11.10
2023-04-30T01:51:13.203Z,11.17
2023-04-30T01:53:44.287Z,11.07
2023-04-30T01:56:38.425Z,11.02
2023-04-30T01:59:05.251Z,10.95
2023-04-30T02:01:33.599Z,10.97
2023-04-30T02:04:00.425Z,10.94
2023-04-30T02:06:27.341Z,10.95
2023-04-30T02:08:54.732Z,11.04
2023-04-30T02:11:21.562Z,10.98
2023-04-30T02:13:48.065Z,11.08
2023-04-30T02:16:14.643Z,11.03
2023-04-30T02:18:41.258Z,11.09
2023-04-30T02:21:07.818Z,11.13
2023-04-30T02:23:34.301Z,11.10
2023-04-30T02:26:00.814Z,11.26
2023-04-30T02:28:27.317Z,11.24
2023-04-30T02:30:53.889Z,11.09
2023-04-30T02:33:20.402Z,11.15
2023-04-30T02:35:46.976Z,11.20
2023-04-30T02:38:13.534Z,11.30
2023-04-30T02:40:41.519Z,11.28
2023-04-30T02:43:08.372Z,11.27
2023-04-30T02:45:34.895Z,11.50
2023-04-30T02:48:01.511Z,11.41
2023-04-30T02:50:28.127Z,11.41
2023-04-30T02:52:54.620Z,11.49
2023-04-30T02:55:21.138Z,11.46
2023-04-30T02:57:47.603Z,11.42
2023-04-30T03:00:14.191Z,11.48
2023-04-30T03:02:40.850Z,11.62
2023-04-30T03:05:07.677Z,11.56
2023-04-30T03:07:34.217Z,11.57
2023-04-30T03:10:00.737Z,11.66
2023-04-30T03:12:27.247Z,11.51
2023-04-30T03:14:53.745Z,11.48
2023-04-30T03:17:20.333Z,11.46
2023-04-30T03:19:46.893Z,11.54
2023-04-30T03:22:13.404Z,11.52
2023-04-30T03:24:39.915Z,11.68
2023-04-30T03:27:06.395Z,11.73
2023-04-30T03:29:33.338Z,11.77
2023-04-30T03:31:59.947Z,11.84
2023-04-30T03:34:26.482Z,11.89
2023-04-30T03:36:52.990Z,11.84
2023-04-30T03:39:19.533Z,12.08
2023-04-30T03:41:46.136Z,12.42
2023-04-30T03:44:12.628Z,12.62
2023-04-30T03:46:39.251Z,12.90
2023-04-30T03:49:05.811Z,12.97
2023-04-30T03:51:32.365Z,13.12
2023-04-30T03:53:58.868Z,13.39
2023-04-30T03:56:25.502Z,13.32
2023-04-30T03:58:52.004Z,13.35
2023-04-30T04:01:18.564Z,13.63
2023-04-30T04:03:45.229Z,13.42
2023-04-30T04:06:11.824Z,13.40
2023-04-30T04:08:38.364Z,13.50
2023-04-30T04:11:04.871Z,13.48
2023-04-30T04:13:31.481Z,13.59
2023-04-30T04:15:58.147Z,13.75
2023-04-30T04:18:24.677Z,13.59
2023-04-30T04:20:51.200Z,13.74
2023-04-30T04:23:17.797Z,13.78
2023-04-30T04:25:44.290Z,13.44
2023-04-30T04:28:10.854Z,13.64
2023-04-30T04:30:37.322Z,13.70
2023-04-30T04:33:03.882Z,13.65
2023-04-30T04:35:30.453Z,13.88
2023-04-30T04:37:56.929Z,13.92
2023-04-30T04:40:23.518Z,14.11
2023-04-30T04:42:50.508Z,14.18
2023-04-30T04:45:17.092Z,14.29
2023-04-30T04:47:43.597Z,14.18
2023-04-30T04:50:10.813Z,14.03
2023-04-30T04:52:37.363Z,13.96
2023-04-30T04:55:04.056Z,13.98
2023-04-30T04:57:30.603Z,14.05
2023-04-30T04:59:57.482Z,14.02
2023-04-30T05:02:24.018Z,14.05
2023-04-30T05:04:50.634Z,14.20
2023-04-30T05:07:17.904Z,14.35
2023-04-30T05:09:47.687Z,14.46
2023-04-30T05:12:14.660Z,14.46
2023-04-30T05:14:41.162Z,14.51
2023-04-30T05:17:07.671Z,14.33
2023-04-30T05:19:34.169Z,14.37
2023-04-30T05:22:00.683Z,14.57
2023-04-30T05:24:29.286Z,14.66
2023-04-30T05:26:55.801Z,14.68
2023-04-30T05:29:22.327Z,14.76
2023-04-30T05:31:49.005Z,14.54
2023-04-30T05:34:15.583Z,14.66
2023-04-30T05:36:44.206Z,14.76
2023-04-30T05:39:11.024Z,14.96
2023-04-30T05:41:37.651Z,14.86
2023-04-30T05:44:04.282Z,14.94
2023-04-30T05:46:31.248Z,14.96
2023-04-30T05:48:57.807Z,15.19
2023-04-30T05:51:24.379Z,15.26
2023-04-30T05:53:50.914Z,15.29
2023-04-30T05:56:17.452Z,15.30
2023-04-30T05:58:43.976Z,15.24
2023-04-30T06:01:10.467Z,15.26
2023-04-30T06:03:37.364Z,15.43
2023-04-30T06:06:04.742Z,15.19
2023-04-30T06:08:31.333Z,15.07
2023-04-30T06:10:58.011Z,15.07
2023-04-30T06:13:24.518Z,15.11
2023-04-30T06:15:51.142Z,14.94
2023-04-30T06:18:17.638Z,15.22
2023-04-30T06:20:44.171Z,15.36
2023-04-30T06:23:10.664Z,15.34
2023-04-30T06:25:37.195Z,15.29
2023-04-30T06:28:03.779Z,15.34
2023-04-30T06:30:31.781Z,15.47
2023-04-30T06:32:58.360Z,15.34
2023-04-30T06:35:24.979Z,15.28
2023-04-30T06:37:51.473Z,15.51
2023-04-30T06:40:17.958Z,15.30
2023-04-30T06:42:45.706Z,14.80
2023-04-30T06:45:13.969Z,15.30
2023-04-30T06:47:43.142Z,15.91
2023-04-30T06:50:10.098Z,16.05
2023-04-30T06:52:36.734Z,16.31
2023-04-30T06:55:03.333Z,16.39
2023-04-30T06:57:29.829Z,16.97
2023-04-30T06:59:56.527Z,17.07
2023-04-30T07:02:23.412Z,17.48
2023-04-30T07:04:49.986Z,18.38
2023-04-30T07:07:16.531Z,19.15
2023-04-30T07:09:43.045Z,18.93
2023-04-30T07:12:34.792Z,18.65
2023-04-30T07:15:01.299Z,18.64
2023-04-30T07:17:37.254Z,18.78
2023-04-30T07:20:07.506Z,19.17
2023-04-30T07:22:34.177Z,19.55
2023-04-30T07:25:00.716Z,19.34
2023-04-30T07:27:27.804Z,19.35
2023-04-30T07:29:55.177Z,18.85
2023-04-30T07:32:22.462Z,18.67
2023-04-30T07:34:49.036Z,18.72
2023-04-30T07:37:15.962Z,18.41
2023-04-30T07:39:42.504Z,17.71
2023-04-30T07:42:09.044Z,17.37
2023-04-30T07:44:35.520Z,17.03
2023-04-30T07:47:02.047Z,16.94
2023-04-30T07:49:28.949Z,17.14
2023-04-30T07:51:55.470Z,17.29
2023-04-30T07:54:27.420Z,17.63
2023-04-30T07:59:25.541Z,18.16
2023-04-30T08:01:52.117Z,18.43
2023-04-30T08:04:18.748Z,18.56
2023-04-30T08:06:48.201Z,18.87
2023-04-30T08:09:14.797Z,19.14
2023-04-30T08:11:42.279Z,19.30
2023-04-30T08:14:08.828Z,19.45
2023-04-30T08:16:35.424Z,19.16
2023-04-30T08:19:01.995Z,19.08
2023-04-30T08:21:28.508Z,19.06
2023-04-30T08:23:55.160Z,19.00
2023-04-30T08:26:26.031Z,18.84
2023-04-30T08:28:52.639Z,18.45
2023-04-30T08:31:22.264Z,18.51
2023-04-30T08:33:48.782Z,18.55
2023-04-30T08:36:15.480Z,18.99
2023-04-30T08:38:41.991Z,19.08
2023-04-30T08:41:13.291Z,18.92
2023-04-30T08:43:40.846Z,19.01
2023-04-30T08:46:07.797Z,19.01
2023-04-30T08:48:34.819Z,18.75
2023-04-30T08:51:01.836Z,18.39
2023-04-30T08:53:30.018Z,18.54
2023-04-30T08:55:56.667Z,18.46
2023-04-30T08:58:24.146Z,18.26
2023-04-30T09:00:50.650Z,18.19
2023-04-30T09:03:17.630Z,18.00
2023-04-30T09:05:45.559Z,18.25
2023-04-30T09:08:17.116Z,18.42
2023-04-30T09:10:43.630Z,18.48
2023-04-30T09:13:10.661Z,18.65
2023-04-30T09:15:38.815Z,18.82
2023-04-30T09:18:12.751Z,18.78
2023-04-30T09:20:54.408Z,18.58
2023-04-30T09:23:20.994Z,18.67
2023-04-30T09:25:47.652Z,18.90
2023-04-30T09:28:14.325Z,18.96
2023-04-30T09:30:41.597Z,19.22
2023-04-30T09:33:11.452Z,19.37
2023-04-30T09:35:39.809Z,19.69
2023-04-30T09:38:06.417Z,19.38
2023-04-30T09:40:41.536Z,19.19
2023-04-30T09:43:11.140Z,19.00
2023-04-30T09:45:45.295Z,19.84
2023-04-30T09:48:16.860Z,20.18
2023-04-30T09:50:44.008Z,20.38
2023-04-30T09:53:12.065Z,20.58
2023-04-30T09:55:38.855Z,20.48
2023-04-30T09:58:06.805Z,19.98
2023-04-30T10:00:34.596Z,20.15
2023-04-30T10:03:05.775Z,19.79
2023-04-30T10:05:34.226Z,19.39
2023-04-30T10:08:00.862Z,19.26
2023-04-30T10:10:28.149Z,18.84
2023-04-30T10:12:56.703Z,19.12
2023-04-30T10:15:31.126Z,19.20
2023-04-30T10:18:04.701Z,19.23
2023-04-30T10:20:32.071Z,18.85
2023-04-30T10:22:59.529Z,18.85
2023-04-30T10:25:28.814Z,18.72
2023-04-30T10:28:03.248Z,18.96
2023-04-30T10:30:33.744Z,18.81
2023-04-30T10:33:18.730Z,18.93
2023-04-30T10:36:00.503Z,19.16
2023-04-30T10:38:28.867Z,19.32
2023-04-30T10:41:01.254Z,19.69
2023-04-30T10:43:36.050Z,20.01
2023-04-30T10:46:05.902Z,20.06
2023-04-30T10:48:34.655Z,20.31
2023-04-30T10:51:08.763Z,20.20
2023-04-30T10:53:38.697Z,20.46
2023-04-30T10:56:08.399Z,20.10
2023-04-30T10:58:38.784Z,20.13
2023-04-30T11:01:13.164Z,19.97
2023-04-30T11:03:44.011Z,19.81
2023-04-30T11:06:17.222Z,19.84
2023-04-30T11:08:45.072Z,19.95
2023-04-30T11:11:12.294Z,20.06
2023-04-30T11:13:40.038Z,20.16
2023-04-30T11:16:06.957Z,20.34
2023-04-30T11:18:59.770Z,20.10
2023-04-30T11:21:26.332Z,19.86
2023-04-30T11:24:03.442Z,19.96
2023-04-30T11:26:29.988Z,20.03
2023-04-30T11:28:56.682Z,20.14
2023-04-30T11:31:33.293Z,19.61
2023-04-30T11:34:02.997Z,19.90
2023-04-30T11:36:30.721Z,19.74
2023-04-30T11:38:57.980Z,19.73
2023-04-30T11:41:24.486Z,20.10
2023-04-30T11:44:00.063Z,20.49
2023-04-30T11:46:29.153Z,20.42
2023-04-30T11:48:57.130Z,20.63
2023-04-30T11:51:27.057Z,20.55
2023-04-30T11:53:53.794Z,20.59
2023-04-30T11:56:23.713Z,20.75
2023-04-30T11:58:52.106Z,20.83
2023-04-30T12:01:23.971Z,20.89
2023-04-30T12:03:51.284Z,20.89
2023-04-30T12:06:23.251Z,20.98
2023-04-30T12:08:49.876Z,21.40
2023-04-30T12:11:28.690Z,21.66
2023-04-30T12:13:56.799Z,21.51
2023-04-30T12:16:24.459Z,21.13
2023-04-30T12:18:52.506Z,21.34
2023-04-30T12:21:20.893Z,21.43
2023-04-30T12:23:47.446Z,21.45
2023-04-30T12:26:14.030Z,21.51
2023-04-30T12:28:43.423Z,21.69
2023-04-30T12:31:09.937Z,21.87
2023-04-30T12:33:36.447Z,21.59
2023-04-30T12:36:03.073Z,21.87
2023-04-30T12:38:29.630Z,21.87
2023-04-30T12:40:56.527Z,22.08
2023-04-30T12:43:23.160Z,22.11
2023-04-30T12:45:54.566Z,21.98
2023-04-30T12:48:26.840Z,21.64
2023-04-30T12:51:01.431Z,21.71
2023-04-30T12:53:28.732Z,21.24
2023-04-30T12:56:12.573Z,21.49
2023-04-30T12:58:46.946Z,21.81
2023-04-30T13:01:20.207Z,21.81
2023-04-30T13:03:47.303Z,21.97
2023-04-30T13:06:14.172Z,22.06
2023-04-30T13:08:56.311Z,21.95
2023-04-30T13:11:24.397Z,21.91
2023-04-30T13:14:18.656Z,21.72
2023-04-30T13:16:45.570Z,21.84
2023-04-30T13:19:12.044Z,21.88
2023-04-30T13:21:38.575Z,22.14
2023-04-30T13:24:05.541Z,22.10
2023-04-30T13:26:32.152Z,22.17
2023-04-30T13:28:58.669Z,21.97
2023-04-30T13:31:25.382Z,21.80
2023-04-30T13:33:52.052Z,21.69
2023-04-30T13:36:18.693Z,21.92
2023-04-30T13:38:45.350Z,22.22
2023-04-30T13:41:11.893Z,22.01
2023-04-30T13:43:44.575Z,22.05
2023-04-30T13:46:11.380Z,22.04
2023-04-30T13:48:38.029Z,22.13
2023-04-30T13:51:04.793Z,21.96
2023-04-30T13:53:31.306Z,21.98
2023-04-30T13:55:57.975Z,22.00
2023-04-30T13:58:24.814Z,22.09
2023-04-30T14:00:54.016Z,22.20
2023-04-30T14:03:20.883Z,22.05
2023-04-30T14:05:47.503Z,21.63
2023-04-30T14:08:14.019Z,21.77
2023-04-30T14:10:40.638Z,21.78
2023-04-30T14:13:07.191Z,21.80
2023-04-30T14:15:42.291Z,21.91
2023-04-30T14:18:08.986Z,21.80
2023-04-30T14:20:35.729Z,21.66
2023-04-30T14:23:02.908Z,21.57
2023-04-30T14:25:29.560Z,21.33
2023-04-30T14:27:56.115Z,21.22
2023-04-30T14:30:22.873Z,21.10
2023-04-30T14:32:49.523Z,21.06
2023-04-30T14:35:19.310Z,20.94
2023-04-30T14:37:45.796Z,20.82
2023-04-30T14:40:15.305Z,20.62
2023-04-30T14:42:41.885Z,20.61
2023-04-30T14:45:09.268Z,20.62
2023-04-30T14:47:35.878Z,20.36
2023-04-30T14:50:09.074Z,20.16
2023-04-30T14:52:35.564Z,20.23
2023-04-30T14:55:02.070Z,20.22
2023-04-30T14:57:28.643Z,20.15
2023-04-30T14:59:55.429Z,20.05
2023-04-30T15:02:22.251Z,20.15
2023-04-30T15:04:48.931Z,20.02
2023-04-30T15:07:41.518Z,20.08
2023-04-30T15:12:58.357Z,20.35
2023-04-30T15:15:25.069Z,20.77
2023-04-30T15:17:51.572Z,21.01
2023-04-30T15:20:21.224Z,20.89
2023-04-30T15:22:47.848Z,21.00
2023-04-30T15:25:14.455Z,20.94
2023-04-30T15:27:43.670Z,21.03
2023-04-30T15:30:10.395Z,21.06
2023-04-30T15:32:36.980Z,20.89
2023-04-30T15:35:03.617Z,20.59
2023-04-30T15:37:30.216Z,20.17
2023-04-30T15:40:57.249Z,20.01
2023-04-30T15:43:23.878Z,19.96
2023-04-30T15:45:50.519Z,19.85
2023-04-30T15:48:17.119Z,19.78
2023-04-30T15:50:43.679Z,19.69
2023-04-30T15:53:10.288Z,19.53
2023-04-30T15:55:37.033Z,19.30
2023-04-30T15:58:03.539Z,19.24
2023-04-30T16:00:30.361Z,19.33
2023-04-30T16:02:56.919Z,19.32
2023-04-30T16:05:23.534Z,19.22
2023-04-30T16:07:51.974Z,19.17
2023-04-30T16:10:18.564Z,19.20
2023-04-30T16:12:45.089Z,19.29
2023-04-30T16:15:11.867Z,19.03
2023-04-30T16:17:40.514Z,19.18
2023-04-30T16:20:07.727Z,19.14
2023-04-30T16:22:43.127Z,19.05
2023-04-30T16:25:09.849Z,19.04
2023-04-30T16:31:25.482Z,19.33
2023-04-30T16:33:52.160Z,19.46
2023-04-30T16:36:30.794Z,19.52
2023-04-30T16:38:58.243Z,19.48
2023-04-30T16:41:24.802Z,19.43
2023-04-30T16:43:51.460Z,19.46
2023-04-30T16:46:18.534Z,19.32
2023-04-30T16:48:45.039Z,19.24
2023-04-30T16:51:11.765Z,19.23
2023-04-30T16:53:39.494Z,19.15
2023-04-30T16:56:26.459Z,18.93
2023-04-30T16:59:06.117Z,18.95
2023-04-30T17:01:32.696Z,18.68
2023-04-30T17:03:59.279Z,18.62
2023-04-30T17:06:25.902Z,18.43
2023-04-30T17:08:52.503Z,18.46
2023-04-30T17:11:19.267Z,18.27
2023-04-30T17:13:45.780Z,18.25
2023-04-30T17:16:12.500Z,18.11
2023-04-30T17:18:41.379Z,18.03
2023-04-30T17:23:51.839Z,18.09
2023-04-30T17:29:58.602Z,18.02
2023-04-30T17:32:25.495Z,18.08
2023-04-30T17:34:52.096Z,18.02
2023-04-30T17:37:18.609Z,18.00
2023-04-30T17:39:45.114Z,17.92
2023-04-30T17:42:11.617Z,18.03
2023-04-30T17:44:38.181Z,18.02
2023-04-30T17:47:04.703Z,17.99
2023-04-30T17:49:31.185Z,17.97
2023-04-30T17:51:57.802Z,17.86
2023-04-30T17:54:25.165Z,17.87
2023-04-30T17:56:51.730Z,17.84
2023-04-30T17:59:18.347Z,17.69
2023-04-30T18:01:44.866Z,17.66
2023-04-30T18:04:16.025Z,17.35
2023-04-30T18:06:42.691Z,17.33
2023-04-30T18:09:34.122Z,17.26
2023-04-30T18:12:00.718Z,17.40
2023-04-30T18:14:37.523Z,17.44
2023-04-30T18:17:07.441Z,17.50
2023-04-30T18:19:39.930Z,17.51
2023-04-30T18:22:06.450Z,17.43
2023-04-30T18:24:32.943Z,17.28
2023-04-30T18:27:06.920Z,17.30
2023-04-30T18:29:35.826Z,17.15
2023-04-30T18:39:28.393Z,16.62
2023-04-30T18:42:16.964Z,16.64
2023-04-30T18:44:43.746Z,16.51
2023-04-30T18:47:10.430Z,16.61
2023-04-30T18:49:36.977Z,16.73
2023-04-30T18:52:29.545Z,16.76
2023-04-30T18:54:56.266Z,16.63
2023-04-30T18:58:02.300Z,16.64
2023-04-30T19:00:28.948Z,16.65
2023-04-30T19:02:55.755Z,16.66
2023-04-30T19:08:57.748Z,16.62
2023-04-30T19:11:43.195Z,16.68
2023-04-30T19:14:11.894Z,16.76
2023-04-30T19:16:38.694Z,16.79
2023-04-30T19:19:05.269Z,16.74
2023-04-30T19:24:38.789Z,16.63
2023-04-30T19:27:15.002Z,16.65
2023-04-30T19:29:41.642Z,16.68
2023-04-30T19:32:08.375Z,16.68
2023-04-30T19:34:38.060Z,16.56
2023-04-30T19:37:04.733Z,16.57
2023-04-30T19:39:33.781Z,16.32
2023-04-30T19:42:00.452Z,16.46
2023-04-30T19:44:27.031Z,16.53
2023-04-30T19:46:53.547Z,16.55
2023-04-30T19:49:23.598Z,16.47
2023-04-30T19:51:53.412Z,16.47
2023-04-30T19:54:19.980Z,16.53
2023-04-30T19:56:46.534Z,16.50
2023-04-30T19:59:13.178Z,16.55
2023-04-30T20:01:39.843Z,16.51
2023-04-30T20:07:18.493Z,16.12
2023-04-30T20:09:45.098Z,15.88
2023-04-30T20:12:11.584Z,16.00
2023-04-30T20:14:38.657Z,15.76
2023-04-30T20:19:40.439Z,15.89
2023-04-30T20:22:07.014Z,16.00
2023-04-30T20:24:33.544Z,16.04
2023-04-30T20:27:09.284Z,16.14
2023-04-30T20:29:44.760Z,16.05
2023-04-30T20:32:11.222Z,15.99
2023-04-30T20:34:37.748Z,16.06
2023-04-30T20:37:04.285Z,16.05
2023-04-30T20:39:30.805Z,16.03
2023-04-30T20:41:57.283Z,16.13
2023-04-30T20:44:23.763Z,16.15
2023-04-30T20:46:50.275Z,16.00
2023-04-30T20:49:16.875Z,15.89
2023-04-30T20:51:43.394Z,15.90
2023-04-30T20:54:09.890Z,15.92
2023-04-30T20:56:36.416Z,15.89
2023-04-30T21:02:40.733Z,15.77
2023-04-30T21:11:54.688Z,15.58
2023-04-30T21:14:21.225Z,15.62
2023-04-30T21:16:47.816Z,15.62
2023-04-30T21:19:14.470Z,15.69
2023-04-30T21:21:40.942Z,15.73
2023-04-30T21:24:07.563Z,15.66
2023-04-30T21:26:34.389Z,15.44
2023-04-30T21:29:01.919Z,15.47
2023-04-30T21:31:28.739Z,15.58
2023-04-30T21:33:55.400Z,15.54
2023-04-30T21:36:21.932Z,15.54
2023-04-30T21:38:54.440Z,15.64
2023-04-30T21:41:21.134Z,15.55
2023-04-30T21:43:47.670Z,15.58
2023-04-30T21:46:14.300Z,15.61
2023-04-30T21:48:40.878Z,15.65
2023-04-30T21:51:15.132Z,15.66
2023-04-30T21:53:41.941Z,15.65
2023-04-30T21:56:09.559Z,15.67
2023-04-30T21:58:36.490Z,15.63
2023-04-30T22:04:26.566Z,15.30
2023-04-30T22:06:53.494Z,15.37
2023-04-30T22:09:20.204Z,15.44
2023-04-30T22:11:46.819Z,15.46
2023-04-30T22:14:13.391Z,15.49
2023-04-30T22:16:43.283Z,15.47
2023-04-30T22:19:09.841Z,15.49
2023-04-30T22:21:36.480Z,15.52
2023-04-30T22:24:03.000Z,15.45
2023-04-30T22:26:29.497Z,15.32
2023-04-30T22:29:10.488Z,15.36
2023-04-30T22:32:06.487Z,15.32
2023-04-30T22:34:53.314Z,15.32
2023-04-30T22:37:19.849Z,15.36
2023-04-30T22:39:46.380Z,15.27
2023-04-30T22:42:12.902Z,15.23
2023-04-30T22:44:52.199Z,15.14
2023-04-30T22:47:18.835Z,15.03
2023-04-30T22:49:45.502Z,15.04
2023-04-30T22:52:13.267Z,15.00
2023-04-30T22:54:40.101Z,14.97
2023-04-30T22:57:09.488Z,14.97
2023-04-30T22:59:35.979Z,15.04
2023-04-30T23:02:02.532Z,15.04
2023-04-30T23:04:29.082Z,15.01
2023-04-30T23:06:55.611Z,14.99
2023-04-30T23:09:22.145Z,15.05
2023-04-30T23:11:48.701Z,15.08
2023-04-30T23:14:15.360Z,15.00
2023-04-30T23:16:42.055Z,15.00
2023-04-30T23:19:18.525Z,15.03
2023-04-30T23:24:25.702Z,15.08
2023-04-30T23:29:34.891Z,14.99
2023-04-30T23:32:02.755Z,15.06
2023-04-30T23:34:29.378Z,15.06
2023-04-30T23:36:55.944Z,15.04
2023-04-30T23:39:22.514Z,14.95
2023-04-30T23:41:49.017Z,15.01
2023-04-30T23:44:15.557Z,15.01
2023-04-30T23:46:55.418Z,15.05
2023-04-30T23:49:22.308Z,15.18
2023-04-30T23:51:48.796Z,15.20
2023-04-30T23:54:15.365Z,15.08
2023-04-30T23:56:41.889Z,15.03
2023-04-30T23:59:08.393Z,15.14
